Yel'nya, Russia
Current Conditions -  °F | °C
As of 7:00 AM on Tuesday 23 Dec 2014 (Local Time) from UUBW Reporting Station
Light Snow Light Snow  
Wind Chill: 24°   Ceiling: 1200
Heat Index: 32°   Visibility: 5mi
Dew Point: 30°   Wind: 9mph
Humidity: 93%   Direction: 150°SSE
Pressure: 29.18"   Gusts: NA
Location:  55.52°N, 34.48°E
Report Text: UUBW 230400Z 15004MPS 8000 -SN OVC012 M00/M01 Q0988 NOSIG
Loading
Personal Weather Stations






























Interactive Weather Map New forecast layout! Learn more

10-Day Weather Forecast

Advertisements
Track Severe Weather on mobile